createdAt,value
2022-09-15T00:00:16.511Z,21.70
2022-09-15T00:02:41.482Z,22.02
2022-09-15T00:05:06.290Z,17.88
2022-09-15T00:07:29.842Z,19.33
2022-09-15T00:09:53.310Z,21.17
2022-09-15T00:12:17.074Z,20.90
2022-09-15T00:14:40.485Z,21.45
2022-09-15T00:17:04.414Z,20.35
2022-09-15T00:19:29.799Z,19.65
2022-09-15T00:21:53.720Z,21.60
2022-09-15T00:24:17.208Z,22.58
2022-09-15T00:26:40.792Z,18.52
2022-09-15T00:29:06.303Z,18.25
2022-09-15T00:31:31.780Z,21.08
2022-09-15T00:34:02.488Z,21.67
2022-09-15T00:36:28.229Z,20.98
2022-09-15T00:38:52.409Z,19.15
2022-09-15T00:41:20.861Z,19.95
2022-09-15T00:43:51.599Z,20.00
2022-09-15T00:46:17.531Z,22.77
2022-09-15T00:48:45.638Z,19.35
2022-09-15T00:51:11.668Z,20.77
2022-09-15T00:53:37.240Z,19.60
2022-09-15T00:56:02.969Z,18.00
2022-09-15T00:58:30.237Z,18.70
2022-09-15T01:00:58.066Z,20.58
2022-09-15T01:03:21.286Z,21.40
2022-09-15T01:05:49.716Z,19.25
2022-09-15T01:08:18.835Z,17.25
2022-09-15T01:10:44.839Z,19.85
2022-09-15T01:13:10.593Z,18.55
2022-09-15T01:15:43.220Z,17.83
2022-09-15T01:18:16.369Z,18.83
2022-09-15T01:20:58.336Z,19.05
2022-09-15T01:24:23.021Z,22.27
2022-09-15T01:27:24.397Z,19.67
2022-09-15T01:30:15.959Z,16.48
2022-09-15T01:33:05.282Z,17.15
2022-09-15T01:35:43.841Z,17.13
2022-09-15T01:38:14.986Z,16.80
2022-09-15T01:40:44.256Z,19.20
2022-09-15T01:43:10.518Z,17.83
2022-09-15T01:45:36.912Z,17.83
2022-09-15T01:48:05.984Z,16.77
2022-09-15T01:50:34.234Z,19.25
2022-09-15T01:53:02.574Z,16.33
2022-09-15T01:55:41.401Z,16.77
2022-09-15T01:58:04.690Z,18.15
2022-09-15T02:00:27.866Z,16.40
2022-09-15T02:02:58.295Z,18.42
2022-09-15T02:05:30.279Z,21.85
2022-09-15T02:08:01.897Z,21.92
2022-09-15T02:10:35.115Z,22.77
2022-09-15T02:13:16.923Z,17.35
2022-09-15T02:15:46.973Z,20.67
2022-09-15T02:18:15.185Z,19.40
2022-09-15T02:20:49.209Z,18.30
2022-09-15T02:23:19.688Z,18.40
2022-09-15T02:25:47.094Z,19.80
2022-09-15T02:28:12.968Z,19.60
2022-09-15T02:30:40.467Z,22.15
2022-09-15T02:33:08.293Z,24.02
2022-09-15T02:35:36.002Z,23.25
2022-09-15T02:38:00.739Z,23.98
2022-09-15T02:40:24.462Z,22.15
2022-09-15T02:42:55.791Z,24.13
2022-09-15T02:45:20.098Z,23.05
2022-09-15T02:47:43.409Z,22.63
2022-09-15T02:50:08.390Z,24.85
2022-09-15T02:52:32.966Z,21.55
2022-09-15T02:54:56.226Z,20.90
2022-09-15T02:57:19.817Z,20.42
2022-09-15T03:00:12.052Z,23.42
2022-09-15T03:02:35.370Z,23.42
2022-09-15T03:04:58.612Z,23.30
2022-09-15T03:07:21.959Z,27.67
2022-09-15T03:09:47.247Z,26.75
2022-09-15T03:12:10.529Z,27.25
2022-09-15T03:14:34.128Z,25.08
2022-09-15T03:16:58.349Z,30.95
2022-09-15T03:19:21.717Z,27.02
2022-09-15T03:21:44.866Z,23.02
2022-09-15T03:24:08.465Z,25.08
2022-09-15T03:26:33.377Z,26.70
2022-09-15T03:28:56.561Z,25.25
2022-09-15T03:31:20.431Z,26.50
2022-09-15T03:33:43.671Z,29.95
2022-09-15T03:36:08.042Z,25.60
2022-09-15T03:38:31.497Z,29.25
2022-09-15T03:41:00.420Z,25.58
2022-09-15T03:43:25.122Z,25.80
2022-09-15T03:45:48.347Z,26.98
2022-09-15T03:48:11.577Z,24.20
2022-09-15T03:50:36.393Z,25.52
2022-09-15T03:53:01.257Z,24.17
2022-09-15T03:55:24.446Z,25.63
2022-09-15T03:57:47.650Z,23.63
2022-09-15T04:00:14.512Z,20.15
2022-09-15T04:02:37.807Z,25.63
2022-09-15T04:05:01.032Z,22.48
2022-09-15T04:07:24.347Z,25.65
2022-09-15T04:09:47.534Z,24.98
2022-09-15T04:12:11.959Z,22.75
2022-09-15T04:14:35.222Z,26.67
2022-09-15T04:17:00.148Z,21.98
2022-09-15T04:19:23.322Z,23.25
2022-09-15T04:21:47.450Z,21.23
2022-09-15T04:24:10.613Z,24.27
2022-09-15T04:26:36.206Z,22.15
2022-09-15T04:29:03.964Z,22.73
2022-09-15T04:31:28.035Z,25.80
2022-09-15T04:33:54.866Z,23.67
2022-09-15T04:36:21.057Z,25.35
2022-09-15T04:38:44.863Z,20.92
2022-09-15T04:41:08.660Z,23.98
2022-09-15T04:43:32.726Z,24.15
2022-09-15T04:45:56.474Z,21.70
2022-09-15T04:48:19.763Z,23.98
2022-09-15T04:50:44.618Z,19.55
2022-09-15T04:53:07.931Z,23.55
2022-09-15T04:55:33.464Z,24.35
2022-09-15T04:57:56.641Z,21.63
2022-09-15T05:00:20.081Z,21.05
2022-09-15T05:02:43.637Z,25.30
2022-09-15T05:05:07.894Z,24.50
2022-09-15T05:07:32.486Z,20.67
2022-09-15T05:09:56.663Z,21.75
2022-09-15T05:12:19.846Z,26.30
2022-09-15T05:14:43.007Z,32.15
2022-09-15T05:17:06.330Z,23.02
2022-09-15T05:19:29.524Z,25.77
2022-09-15T05:21:52.789Z,23.75
2022-09-15T05:24:17.358Z,19.70
2022-09-15T05:26:41.634Z,23.08
2022-09-15T05:29:04.977Z,19.00
2022-09-15T05:31:31.739Z,22.85
2022-09-15T05:33:55.686Z,20.90
2022-09-15T05:36:21.191Z,20.23
2022-09-15T05:38:45.493Z,22.48
2022-09-15T05:41:13.878Z,21.00
2022-09-15T05:43:39.719Z,21.63
2022-09-15T05:46:03.527Z,21.63
2022-09-15T05:48:30.853Z,24.95
2022-09-15T05:50:56.269Z,27.00
2022-09-15T05:53:19.843Z,26.15
2022-09-15T05:55:44.874Z,21.75
2022-09-15T06:10:54.978Z,38.33
2022-09-15T06:13:19.361Z,34.67
2022-09-15T06:15:43.309Z,38.47
2022-09-15T06:18:07.226Z,34.42
2022-09-15T06:20:30.949Z,39.70
2022-09-15T06:22:56.139Z,31.83
2022-09-15T06:25:19.662Z,30.55
2022-09-15T06:27:44.551Z,33.05
2022-09-15T06:30:09.860Z,26.33
2022-09-15T06:32:33.630Z,28.50
2022-09-15T06:34:57.184Z,30.40
2022-09-15T06:37:20.665Z,26.55
2022-09-15T06:39:44.636Z,22.48
2022-09-15T06:42:09.528Z,30.98
2022-09-15T06:44:39.632Z,28.20
2022-09-15T06:47:03.698Z,28.17
2022-09-15T06:49:27.191Z,22.17
2022-09-15T06:51:50.726Z,27.63
2022-09-15T06:54:16.056Z,25.73
2022-09-15T06:56:40.235Z,25.23
2022-09-15T06:59:04.155Z,31.10
2022-09-15T07:01:31.563Z,30.17
2022-09-15T07:03:55.827Z,29.75
2022-09-15T07:06:19.627Z,27.40
2022-09-15T07:08:43.498Z,27.80
2022-09-15T07:11:07.582Z,26.92
2022-09-15T07:13:31.217Z,27.17
2022-09-15T07:15:57.462Z,28.00
2022-09-15T07:18:22.798Z,25.67
2022-09-15T07:20:46.294Z,27.38
2022-09-15T07:23:09.851Z,21.40
2022-09-15T07:25:33.298Z,25.55
2022-09-15T07:27:56.745Z,21.83
2022-09-15T07:30:20.209Z,23.52
2022-09-15T07:32:43.695Z,29.88
2022-09-15T07:35:09.892Z,25.02
2022-09-15T07:37:33.544Z,26.52
2022-09-15T07:39:57.108Z,27.30
2022-09-15T07:42:20.585Z,24.00
2022-09-15T07:44:44.053Z,25.67
2022-09-15T07:47:07.743Z,22.52
2022-09-15T07:49:31.511Z,21.27
2022-09-15T07:51:56.408Z,21.05
2022-09-15T07:54:22.914Z,23.88
2022-09-15T07:56:48.642Z,21.27
2022-09-15T07:59:12.436Z,21.60
2022-09-15T08:01:35.939Z,21.95
2022-09-15T08:03:59.484Z,22.73
2022-09-15T08:06:25.502Z,21.42
2022-09-15T08:08:55.054Z,19.08
2022-09-15T08:11:21.817Z,19.02
2022-09-15T08:13:45.418Z,18.45
2022-09-15T08:16:11.375Z,18.63
2022-09-15T08:18:35.266Z,18.38
2022-09-15T08:20:58.918Z,20.88
2022-09-15T08:23:23.175Z,19.20
2022-09-15T08:25:48.323Z,23.35
2022-09-15T08:28:11.959Z,17.33
2022-09-15T08:30:35.536Z,17.23
2022-09-15T08:32:59.007Z,16.55
2022-09-15T08:35:22.645Z,16.63
2022-09-15T08:37:46.513Z,16.27
2022-09-15T08:40:17.642Z,17.50
2022-09-15T08:42:45.141Z,17.20
2022-09-15T08:45:20.348Z,16.05
2022-09-15T08:47:49.363Z,13.50
2022-09-15T08:50:22.961Z,15.10
2022-09-15T08:52:53.062Z,13.35
2022-09-15T08:55:34.535Z,13.57
2022-09-15T08:57:59.584Z,10.57
2022-09-15T09:00:23.081Z,12.38
2022-09-15T09:03:21.479Z,9.75
2022-09-15T09:05:55.413Z,10.07
2022-09-15T09:09:25.626Z,10.27
2022-09-15T09:12:21.050Z,13.02
2022-09-15T09:15:03.963Z,12.73
2022-09-15T09:17:45.269Z,9.55
2022-09-15T09:20:33.436Z,9.50
2022-09-15T09:22:59.344Z,12.57
2022-09-15T09:25:28.581Z,10.60
2022-09-15T09:27:52.653Z,10.68
2022-09-15T09:30:20.405Z,9.73
2022-09-15T09:32:48.126Z,8.55
2022-09-15T09:35:26.856Z,10.30
2022-09-15T09:37:52.674Z,8.65
2022-09-15T09:40:17.146Z,10.13
2022-09-15T09:42:41.211Z,7.78
2022-09-15T09:45:07.624Z,6.78
2022-09-15T09:47:37.630Z,8.10
2022-09-15T09:50:02.242Z,9.27
2022-09-15T09:52:36.856Z,6.88
2022-09-15T09:55:02.484Z,4.93
2022-09-15T09:57:31.424Z,5.30
2022-09-15T10:00:35.818Z,6.05
2022-09-15T10:03:14.269Z,4.38
2022-09-15T10:05:38.120Z,8.98
2022-09-15T10:08:04.025Z,6.85
2022-09-15T10:10:32.293Z,8.38
2022-09-15T10:13:08.305Z,8.48
2022-09-15T10:15:34.115Z,5.80
2022-09-15T10:18:07.271Z,7.78
2022-09-15T10:20:35.462Z,6.75
2022-09-15T10:23:09.258Z,6.45
2022-09-15T10:25:58.134Z,7.80
2022-09-15T10:28:25.717Z,7.90
2022-09-15T10:31:06.651Z,6.55
2022-09-15T10:33:35.034Z,8.93
2022-09-15T10:36:05.832Z,7.40
2022-09-15T10:38:40.451Z,10.75
2022-09-15T10:41:23.434Z,8.20
2022-09-15T10:44:20.356Z,8.77
2022-09-15T10:46:56.800Z,6.88
2022-09-15T10:49:37.601Z,7.20
2022-09-15T10:52:13.557Z,9.40
2022-09-15T10:55:31.894Z,9.25
2022-09-15T10:58:22.511Z,8.13
2022-09-15T11:00:54.611Z,7.25
2022-09-15T11:03:54.368Z,6.82
2022-09-15T11:06:25.254Z,6.50
2022-09-15T11:09:15.108Z,4.45
2022-09-15T11:11:54.642Z,3.22
2022-09-15T11:14:41.673Z,6.50
2022-09-15T11:17:24.512Z,6.68
2022-09-15T11:20:14.143Z,7.32
2022-09-15T11:22:49.313Z,5.43
2022-09-15T11:25:19.134Z,3.97
2022-09-15T11:27:48.109Z,7.82
2022-09-15T11:30:20.070Z,6.18
2022-09-15T11:32:52.897Z,7.00
2022-09-15T11:35:38.241Z,7.60
2022-09-15T11:38:18.207Z,8.68
2022-09-15T11:40:48.667Z,7.75
2022-09-15T11:43:20.097Z,7.65
2022-09-15T11:45:50.084Z,5.60
2022-09-15T11:48:20.677Z,3.40
2022-09-15T11:50:48.637Z,7.25
2022-09-15T11:53:23.065Z,5.53
2022-09-15T11:55:54.824Z,8.48
2022-09-15T11:58:30.754Z,6.18
2022-09-15T12:00:58.020Z,5.28
2022-09-15T12:03:31.210Z,6.70
2022-09-15T12:06:00.521Z,6.40
2022-09-15T12:08:32.124Z,7.65
2022-09-15T12:10:58.205Z,3.72
2022-09-15T12:13:25.121Z,5.63
2022-09-15T12:15:52.249Z,5.90
2022-09-15T12:18:38.407Z,5.30
2022-09-15T12:21:16.115Z,7.05
2022-09-15T12:23:47.120Z,6.95
2022-09-15T12:26:18.823Z,6.20
2022-09-15T12:28:56.178Z,7.68
2022-09-15T12:31:41.138Z,5.93
2022-09-15T12:34:30.339Z,7.43
2022-09-15T12:39:39.416Z,9.50
2022-09-15T12:42:22.705Z,5.25
2022-09-15T12:44:51.290Z,5.82
2022-09-15T12:47:28.571Z,6.22
2022-09-15T12:49:54.468Z,8.30
2022-09-15T12:52:21.886Z,9.90
2022-09-15T12:54:55.775Z,11.52
2022-09-15T12:57:26.380Z,9.32
2022-09-15T12:59:49.983Z,6.25
2022-09-15T13:02:47.015Z,9.63
2022-09-15T13:05:18.025Z,10.20
2022-09-15T13:07:58.287Z,7.65
2022-09-15T13:10:45.156Z,8.00
2022-09-15T13:13:33.330Z,7.65
2022-09-15T13:15:58.689Z,9.70
2022-09-15T13:18:27.737Z,10.57
2022-09-15T13:21:00.380Z,7.28
2022-09-15T13:23:28.225Z,13.27
2022-09-15T13:25:54.311Z,10.68
2022-09-15T13:28:18.970Z,9.35
2022-09-15T13:30:56.810Z,10.45
2022-09-15T13:40:00.642Z,8.45
2022-09-15T13:42:49.322Z,7.78
2022-09-15T13:45:45.537Z,6.93
2022-09-15T13:48:46.045Z,6.10
2022-09-15T13:51:20.780Z,6.22
2022-09-15T13:53:51.402Z,7.72
2022-09-15T13:56:24.942Z,6.10
2022-09-15T13:59:12.105Z,6.43
2022-09-15T14:01:38.796Z,4.30
2022-09-15T14:04:06.748Z,4.00
2022-09-15T14:06:37.232Z,3.72
2022-09-15T14:09:04.165Z,4.85
2022-09-15T14:11:32.233Z,4.18
2022-09-15T14:13:58.090Z,2.92
2022-09-15T14:16:26.027Z,4.82
2022-09-15T14:18:49.586Z,6.35
2022-09-15T14:21:20.362Z,5.15
2022-09-15T14:23:48.249Z,3.78
2022-09-15T14:26:22.149Z,4.80
2022-09-15T14:28:53.649Z,5.57
2022-09-15T14:31:17.361Z,6.45
2022-09-15T14:33:42.699Z,3.50
2022-09-15T14:36:22.367Z,4.00
2022-09-15T14:38:45.900Z,6.57
2022-09-15T14:41:20.439Z,4.28
2022-09-15T14:43:47.233Z,3.85
2022-09-15T14:46:20.793Z,4.60
2022-09-15T14:48:44.557Z,5.22
2022-09-15T14:51:20.348Z,2.88
2022-09-15T14:53:46.794Z,5.28
2022-09-15T14:56:16.006Z,3.40
2022-09-15T14:58:44.519Z,3.95
2022-09-15T15:01:17.697Z,2.30
2022-09-15T15:03:47.536Z,4.15
2022-09-15T15:06:28.920Z,3.95
2022-09-15T15:08:58.316Z,3.83
2022-09-15T15:11:22.374Z,3.63
2022-09-15T15:13:52.187Z,5.20
2022-09-15T15:16:26.121Z,4.07
2022-09-15T15:18:51.387Z,3.83
2022-09-15T15:21:40.587Z,5.05
2022-09-15T15:24:20.383Z,4.18
2022-09-15T15:26:46.326Z,5.15
2022-09-15T15:29:40.832Z,3.72
2022-09-15T15:32:11.262Z,10.23
2022-09-15T15:34:35.292Z,6.25
2022-09-15T15:37:04.091Z,2.97
2022-09-15T15:39:27.581Z,5.05
2022-09-15T15:42:03.086Z,4.22
2022-09-15T15:44:29.277Z,6.25
2022-09-15T15:46:55.730Z,6.15
2022-09-15T15:49:27.461Z,5.05
2022-09-15T15:51:50.969Z,3.97
2022-09-15T15:54:15.302Z,4.18
2022-09-15T15:56:38.780Z,6.53
2022-09-15T15:59:02.307Z,5.10
2022-09-15T16:01:26.545Z,6.50
2022-09-15T16:03:50.072Z,4.68
2022-09-15T16:06:15.933Z,6.15
2022-09-15T16:08:43.975Z,6.88
2022-09-15T16:11:12.000Z,8.07
2022-09-15T16:13:35.593Z,5.82
2022-09-15T16:16:01.324Z,7.75
2022-09-15T16:18:25.426Z,10.20
2022-09-15T16:20:48.882Z,8.40
2022-09-15T16:23:18.503Z,4.72
2022-09-15T16:25:49.788Z,6.32
2022-09-15T16:28:13.294Z,6.65
2022-09-15T16:30:37.496Z,5.95
2022-09-15T16:33:02.184Z,4.05
2022-09-15T16:35:39.393Z,2.97
2022-09-15T16:38:02.889Z,6.13
2022-09-15T16:40:27.796Z,2.92
2022-09-15T16:42:53.230Z,3.85
2022-09-15T16:45:27.374Z,2.95
2022-09-15T16:47:50.941Z,2.70
2022-09-15T16:50:14.485Z,2.70
2022-09-15T16:52:39.352Z,3.25
2022-09-15T16:55:02.906Z,3.63
2022-09-15T16:57:27.778Z,6.43
2022-09-15T16:59:51.448Z,4.28
2022-09-15T17:02:15.471Z,3.90
2022-09-15T17:04:39.017Z,4.18
2022-09-15T17:07:02.510Z,2.40
2022-09-15T17:09:26.041Z,2.35
2022-09-15T17:11:49.906Z,6.68
2022-09-15T17:14:18.567Z,2.83
2022-09-15T17:16:42.106Z,1.65
2022-09-15T17:19:05.770Z,3.75
2022-09-15T17:21:29.747Z,3.10
2022-09-15T17:23:54.511Z,2.92
2022-09-15T17:26:24.681Z,4.60
2022-09-15T17:28:50.500Z,3.67
2022-09-15T17:31:23.669Z,2.90
2022-09-15T17:33:48.535Z,4.72
2022-09-15T17:36:12.761Z,3.28
2022-09-15T17:38:36.638Z,7.18
2022-09-15T17:41:00.286Z,3.13
2022-09-15T17:43:27.482Z,3.15
2022-09-15T17:45:53.650Z,4.40
2022-09-15T17:48:20.249Z,4.00
2022-09-15T17:50:45.386Z,6.53
2022-09-15T17:53:15.463Z,6.13
2022-09-15T17:55:42.111Z,5.47
2022-09-15T17:58:09.142Z,5.28
2022-09-15T18:00:35.723Z,4.53
2022-09-15T18:03:03.299Z,2.53
2022-09-15T18:05:32.460Z,4.70
2022-09-15T18:07:57.938Z,2.67
2022-09-15T18:10:21.634Z,3.65
2022-09-15T18:12:48.413Z,7.85
2022-09-15T18:15:17.385Z,2.67
2022-09-15T18:17:40.866Z,3.33
2022-09-15T18:20:05.532Z,4.07
2022-09-15T18:22:48.227Z,6.28
2022-09-15T18:25:36.346Z,3.25
2022-09-15T18:28:25.604Z,2.97
2022-09-15T18:31:00.503Z,5.82
2022-09-15T18:33:32.848Z,5.15
2022-09-15T18:36:11.365Z,3.58
2022-09-15T18:38:36.676Z,4.78
2022-09-15T18:41:01.419Z,4.18
2022-09-15T18:43:28.256Z,2.92
2022-09-15T18:45:53.231Z,5.43
2022-09-15T18:48:17.524Z,5.25
2022-09-15T18:50:41.512Z,5.90
2022-09-15T18:53:05.341Z,3.85
2022-09-15T18:55:30.317Z,4.80
2022-09-15T18:57:54.064Z,6.20
2022-09-15T19:00:21.007Z,5.65
2022-09-15T19:02:45.118Z,4.60
2022-09-15T19:05:11.484Z,4.65
2022-09-15T19:07:35.216Z,6.15
2022-09-15T19:09:59.035Z,4.50
2022-09-15T19:12:24.026Z,5.70
2022-09-15T19:14:48.419Z,3.90
2022-09-15T19:17:12.960Z,6.47
2022-09-15T19:19:36.445Z,3.38
2022-09-15T19:21:59.873Z,6.28
2022-09-15T19:24:23.516Z,5.57
2022-09-15T19:26:47.811Z,6.78
2022-09-15T19:29:12.730Z,6.10
2022-09-15T19:31:41.839Z,4.07
2022-09-15T19:34:06.191Z,6.07
2022-09-15T19:36:29.679Z,3.50
2022-09-15T19:38:53.308Z,6.50
2022-09-15T19:41:18.880Z,4.28
2022-09-15T19:43:43.239Z,6.72
2022-09-15T19:46:13.895Z,5.88
2022-09-15T19:48:40.862Z,3.47
2022-09-15T19:51:08.281Z,4.47
2022-09-15T19:53:31.744Z,4.35
2022-09-15T19:55:55.285Z,6.32
2022-09-15T19:58:19.613Z,6.53
2022-09-15T20:00:43.152Z,4.95
2022-09-15T20:03:08.002Z,7.00
2022-09-15T20:05:31.439Z,4.13
2022-09-15T20:07:54.943Z,4.45
2022-09-15T20:10:18.516Z,5.45
2022-09-15T20:12:42.016Z,4.00
2022-09-15T20:15:07.045Z,4.38
2022-09-15T20:17:30.614Z,4.22
2022-09-15T20:19:55.523Z,5.85
2022-09-15T20:22:19.105Z,3.45
2022-09-15T20:24:42.617Z,5.97
2022-09-15T20:27:07.013Z,5.00
2022-09-15T20:29:30.431Z,4.97
2022-09-15T20:31:53.931Z,4.85
2022-09-15T20:34:18.661Z,2.67
2022-09-15T20:36:44.519Z,3.70
2022-09-15T20:39:12.803Z,5.93
2022-09-15T20:41:37.014Z,3.08
2022-09-15T20:44:00.898Z,6.07
2022-09-15T20:46:25.485Z,6.35
2022-09-15T20:48:49.751Z,5.03
2022-09-15T20:51:15.914Z,5.70
2022-09-15T20:53:41.759Z,5.90
2022-09-15T20:56:05.616Z,2.03
2022-09-15T20:58:29.334Z,4.40
2022-09-15T21:00:53.616Z,5.00
2022-09-15T21:03:17.323Z,4.25
2022-09-15T21:05:41.028Z,4.60
2022-09-15T21:08:05.140Z,6.93
2022-09-15T21:10:30.582Z,9.20
2022-09-15T21:12:54.891Z,7.15
2022-09-15T21:15:18.319Z,5.35
2022-09-15T21:17:41.823Z,4.78
2022-09-15T21:20:05.994Z,7.15
2022-09-15T21:22:29.820Z,11.25
2022-09-15T21:24:53.246Z,4.68
2022-09-15T21:27:27.874Z,7.47
2022-09-15T21:29:51.335Z,6.10
2022-09-15T21:32:14.821Z,10.60
2022-09-15T21:34:38.352Z,11.10
2022-09-15T21:37:01.837Z,11.77
2022-09-15T21:39:25.445Z,8.52
2022-09-15T21:41:49.021Z,8.23
2022-09-15T21:44:14.326Z,7.90
2022-09-15T21:46:37.917Z,9.70
2022-09-15T21:49:02.050Z,8.00
2022-09-15T21:51:27.136Z,7.13
2022-09-15T21:53:52.244Z,6.45
2022-09-15T21:56:15.770Z,6.80
2022-09-15T21:58:42.893Z,4.90
2022-09-15T22:01:13.885Z,6.45
2022-09-15T22:03:41.125Z,7.63
2022-09-15T22:06:05.018Z,7.45
2022-09-15T22:08:29.190Z,6.65
2022-09-15T22:11:00.882Z,8.52
2022-09-15T22:13:24.334Z,7.57
2022-09-15T22:15:47.814Z,8.75
2022-09-15T22:18:12.728Z,7.63
2022-09-15T22:20:36.212Z,6.45
2022-09-15T22:23:01.814Z,7.78
2022-09-15T22:25:25.610Z,4.03
2022-09-15T22:27:49.377Z,5.47
2022-09-15T22:30:14.285Z,8.77
2022-09-15T22:32:37.801Z,4.00
2022-09-15T22:35:02.835Z,2.20
2022-09-15T22:37:27.652Z,4.70
2022-09-15T22:39:58.896Z,5.63
2022-09-15T22:42:22.926Z,3.70
2022-09-15T22:44:47.073Z,6.82
2022-09-15T22:47:11.127Z,3.00
2022-09-15T22:49:34.538Z,6.03
2022-09-15T22:51:59.378Z,4.90
2022-09-15T22:54:22.957Z,7.18
2022-09-15T22:56:47.768Z,3.75
2022-09-15T22:59:11.284Z,7.22
2022-09-15T23:01:34.723Z,7.43
2022-09-15T23:04:00.140Z,3.20
2022-09-15T23:06:24.192Z,6.30
2022-09-15T23:08:52.891Z,6.65
2022-09-15T23:11:17.147Z,4.32
2022-09-15T23:13:41.049Z,5.72
2022-09-15T23:16:05.855Z,4.65
2022-09-15T23:18:29.727Z,6.75
2022-09-15T23:20:58.831Z,3.28
2022-09-15T23:23:22.548Z,7.78
2022-09-15T23:25:48.033Z,3.20
2022-09-15T23:28:11.625Z,3.50
2022-09-15T23:30:35.685Z,4.43
2022-09-15T23:32:59.079Z,3.55
2022-09-15T23:35:22.661Z,7.45
2022-09-15T23:37:46.131Z,3.05
2022-09-15T23:40:10.819Z,6.18
2022-09-15T23:42:35.746Z,5.05
2022-09-15T23:44:59.763Z,4.68
2022-09-15T23:47:23.234Z,5.55
2022-09-15T23:49:46.627Z,4.28
2022-09-15T23:52:10.161Z,8.20
2022-09-15T23:54:34.115Z,3.30
2022-09-15T23:56:57.844Z,4.45
2022-09-15T23:59:23.373Z,4.65
